Time;durP1;ratioP1;P1;durP2;ratioP2;P2;SDS_P1;SDS_P2;PMS_P1;PMS_P2;Temp;Humidity;BMP_temperature;BMP_pressure;BME280_temperature;BME280_humidity;BME280_pressure;Samples;Min_cycle;Max_cycle;Signal;HPM_P1;HPM_P2
2023/01/23 00:00:59;;;;;;;37.25;16.70;;;;;;;;;;5017325;28;20486;-77
2023/01/23 00:03:26;;;;;;;43.47;17.88;;;;;;;;;;5034512;28;20079;-78
2023/01/23 00:06:04;;;;;;;39.33;17.10;;;;;;;;;;5024174;28;20069;-76
2023/01/23 00:08:31;;;;;;;39.83;18.13;;;;;;;;;;5025097;28;20128;-76
2023/01/23 00:10:58;;;;;;;40.83;16.10;;;;;;;;;;5016940;28;20088;-75
2023/01/23 00:13:26;;;;;;;38.40;17.17;;;;;;;;;;5033930;28;20459;-75
2023/01/23 00:15:52;;;;;;;37.45;16.50;;;;;;;;;;5031101;28;20124;-76
2023/01/23 00:18:19;;;;;;;35.97;16.77;;;;;;;;;;5013375;28;20491;-77
2023/01/23 00:20:46;;;;;;;34.13;16.33;;;;;;;;;;5012634;28;20465;-76
2023/01/23 00:23:13;;;;;;;41.10;17.95;;;;;;;;;;5031949;28;20049;-76
2023/01/23 00:25:39;;;;;;;34.40;16.55;;;;;;;;;;5031534;28;20069;-77
2023/01/23 00:28:06;;;;;;;35.35;17.17;;;;;;;;;;5014078;28;20104;-76
2023/01/23 00:30:34;;;;;;;35.88;17.13;;;;;;;;;;5030945;28;20504;-76
2023/01/23 00:33:01;;;;;;;35.17;16.55;;;;;;;;;;5026648;28;20081;-76
2023/01/23 00:35:27;;;;;;;38.20;17.08;;;;;;;;;;5023326;28;20075;-76
2023/01/23 00:37:54;;;;;;;45.70;18.02;;;;;;;;;;5015784;28;20069;-76
2023/01/23 00:40:21;;;;;;;35.15;17.02;;;;;;;;;;5024014;28;20137;-76
2023/01/23 00:42:48;;;;;;;38.47;17.08;;;;;;;;;;5006473;28;20070;-77
2023/01/23 00:45:14;;;;;;;34.28;17.15;;;;;;;;;;5025455;28;20484;-77
2023/01/23 00:47:42;;;;;;;36.72;17.52;;;;;;;;;;5012699;28;20056;-75
2023/01/23 00:50:11;;;;;;;38.13;17.77;;;;;;;;;;5018631;28;20463;-76
2023/01/23 00:52:37;;;;;;;38.78;17.65;;;;;;;;;;5027742;28;20092;-75
2023/01/23 00:55:05;;;;;;;39.75;18.45;;;;;;;;;;5017301;28;20133;-76
2023/01/23 00:57:32;;;;;;;35.33;16.95;;;;;;;;;;5032724;28;20064;-76
2023/01/23 00:59:58;;;;;;;36.00;17.15;;;;;;;;;;5017222;28;20505;-76
2023/01/23 01:02:25;;;;;;;38.42;17.38;;;;;;;;;;5032055;28;20128;-75
2023/01/23 01:04:53;;;;;;;36.42;17.45;;;;;;;;;;5022465;28;20042;-76
2023/01/23 01:07:20;;;;;;;38.08;18.60;;;;;;;;;;5013176;28;20046;-77
2023/01/23 01:09:46;;;;;;;36.42;16.20;;;;;;;;;;5014492;28;20133;-77
2023/01/23 01:12:13;;;;;;;35.83;17.00;;;;;;;;;;5014387;28;20129;-77
2023/01/23 01:14:40;;;;;;;37.97;18.17;;;;;;;;;;5015303;28;20433;-77
2023/01/23 01:17:07;;;;;;;36.38;17.55;;;;;;;;;;5015767;28;20073;-77
2023/01/23 01:19:33;;;;;;;34.13;16.17;;;;;;;;;;5027898;28;20505;-77
2023/01/23 01:22:01;;;;;;;40.08;18.15;;;;;;;;;;5043620;28;20074;-77
2023/01/23 01:24:28;;;;;;;37.95;17.83;;;;;;;;;;5039710;28;20535;-77
2023/01/23 01:26:55;;;;;;;33.03;17.83;;;;;;;;;;5025199;28;20046;-77
2023/01/23 01:29:23;;;;;;;38.08;17.33;;;;;;;;;;5032880;28;20046;-77
2023/01/23 01:31:49;;;;;;;37.58;17.75;;;;;;;;;;5033786;28;20729;-77
2023/01/23 01:34:16;;;;;;;38.88;16.92;;;;;;;;;;5037156;28;20057;-77
2023/01/23 01:36:43;;;;;;;36.78;16.17;;;;;;;;;;4998119;28;20080;-77
2023/01/23 01:39:11;;;;;;;39.22;17.83;;;;;;;;;;5011493;28;20493;-77
2023/01/23 01:41:37;;;;;;;38.97;16.63;;;;;;;;;;5037246;28;20049;-76
2023/01/23 01:44:04;;;;;;;38.72;17.25;;;;;;;;;;5024475;28;20132;-77
2023/01/23 01:46:31;;;;;;;42.90;16.98;;;;;;;;;;5037068;28;20046;-75
2023/01/23 01:49:10;;;;;;;44.22;18.45;;;;;;;;;;5032351;28;20046;-76
2023/01/23 01:51:42;;;;;;;43.58;17.10;;;;;;;;;;5015748;28;20608;-76
2023/01/23 01:54:16;;;;;;;38.13;17.50;;;;;;;;;;5020644;28;20076;-77
2023/01/23 01:56:49;;;;;;;40.92;17.65;;;;;;;;;;5035638;28;20512;-75
2023/01/23 01:59:17;;;;;;;37.40;16.92;;;;;;;;;;5031185;28;20088;-75
2023/01/23 02:01:47;;;;;;;39.67;18.35;;;;;;;;;;5015643;28;20490;-76
2023/01/23 02:04:15;;;;;;;41.60;19.30;;;;;;;;;;5018794;28;20523;-76
2023/01/23 02:06:42;;;;;;;37.47;17.10;;;;;;;;;;5019512;28;20050;-76
2023/01/23 02:09:14;;;;;;;45.88;19.08;;;;;;;;;;5033109;28;20137;-76
2023/01/23 02:11:42;;;;;;;39.65;17.20;;;;;;;;;;5015590;28;20050;-76
2023/01/23 02:14:09;;;;;;;40.78;18.52;;;;;;;;;;5017317;28;20050;-76
2023/01/23 02:16:39;;;;;;;40.47;17.52;;;;;;;;;;5035493;28;20053;-75
2023/01/23 02:19:16;;;;;;;39.80;18.17;;;;;;;;;;5034634;28;20042;-75
2023/01/23 02:21:45;;;;;;;37.55;17.60;;;;;;;;;;5015798;28;20058;-75
2023/01/23 02:24:19;;;;;;;36.33;16.95;;;;;;;;;;5016782;28;20046;-76
2023/01/23 02:26:48;;;;;;;43.58;17.85;;;;;;;;;;5030425;28;20077;-76
2023/01/23 02:29:17;;;;;;;35.65;17.15;;;;;;;;;;5019032;28;20048;-76
2023/01/23 02:31:44;;;;;;;40.08;17.20;;;;;;;;;;5014764;28;20529;-75
2023/01/23 02:34:12;;;;;;;34.30;15.43;;;;;;;;;;5030749;28;20046;-75
2023/01/23 02:36:42;;;;;;;33.55;16.15;;;;;;;;;;5035216;28;20124;-76
2023/01/23 02:39:12;;;;;;;42.00;18.67;;;;;;;;;;5021084;28;20046;-76
2023/01/23 02:41:41;;;;;;;36.63;18.45;;;;;;;;;;5015257;28;20061;-76
2023/01/23 02:44:12;;;;;;;37.08;16.85;;;;;;;;;;5015606;28;20054;-76
2023/01/23 02:46:39;;;;;;;37.67;17.48;;;;;;;;;;5018369;28;20090;-76
2023/01/23 02:49:05;;;;;;;40.35;16.70;;;;;;;;;;5018568;28;20046;-75
2023/01/23 02:51:32;;;;;;;39.38;16.85;;;;;;;;;;5016203;28;20493;-77
2023/01/23 02:53:59;;;;;;;42.25;18.00;;;;;;;;;;5031519;28;20052;-77
2023/01/23 02:56:25;;;;;;;37.58;16.17;;;;;;;;;;5032345;28;20069;-75
2023/01/23 03:01:38;;;;;;;37.47;17.38;;;;;;;;;;5020537;22;20145;-76
2023/01/23 03:04:05;;;;;;;38.08;17.67;;;;;;;;;;5011125;28;20060;-76
2023/01/23 03:06:35;;;;;;;38.20;17.75;;;;;;;;;;5015239;28;20493;-76
2023/01/23 03:09:09;;;;;;;37.08;17.38;;;;;;;;;;5014182;28;20520;-74
2023/01/23 03:11:39;;;;;;;42.20;17.60;;;;;;;;;;5014204;28;20104;-75
2023/01/23 03:14:08;;;;;;;36.63;17.70;;;;;;;;;;5007880;28;20429;-76
2023/01/23 03:16:35;;;;;;;40.25;17.63;;;;;;;;;;4998438;28;20074;-76
2023/01/23 03:19:06;;;;;;;41.97;19.10;;;;;;;;;;5014289;28;20448;-74
2023/01/23 03:21:34;;;;;;;35.13;16.60;;;;;;;;;;5011618;28;20497;-75
2023/01/23 03:24:38;;;;;;;34.30;16.08;;;;;;;;;;5008584;28;20050;-75
2023/01/23 03:27:05;;;;;;;39.50;17.55;;;;;;;;;;4999379;28;20050;-75
2023/01/23 03:32:16;;;;;;;38.45;18.45;;;;;;;;;;4994733;28;20577;-76
2023/01/23 03:34:44;;;;;;;38.92;17.42;;;;;;;;;;4994793;28;20589;-75
2023/01/23 03:37:13;;;;;;;36.75;16.88;;;;;;;;;;4994757;28;20073;-76
2023/01/23 03:42:24;;;;;;;37.97;18.25;;;;;;;;;;5000522;28;20052;-75
2023/01/23 03:44:51;;;;;;;36.17;16.63;;;;;;;;;;5014549;28;20042;-77
2023/01/23 03:47:19;;;;;;;38.38;17.70;;;;;;;;;;5009422;28;20078;-73
2023/01/23 03:49:47;;;;;;;35.40;16.48;;;;;;;;;;5012282;28;20108;-75
2023/01/23 03:52:14;;;;;;;39.22;17.25;;;;;;;;;;5009935;28;20153;-75
2023/01/23 03:54:41;;;;;;;36.22;15.82;;;;;;;;;;4995250;28;20046;-74
2023/01/23 03:57:08;;;;;;;33.47;16.00;;;;;;;;;;4995875;28;20077;-75
2023/01/23 03:59:34;;;;;;;38.05;16.35;;;;;;;;;;5013963;28;20060;-76
2023/01/23 04:02:03;;;;;;;34.60;16.08;;;;;;;;;;5012188;28;20056;-74
2023/01/23 04:04:30;;;;;;;38.28;16.98;;;;;;;;;;4994456;28;20058;-75
2023/01/23 04:06:58;;;;;;;32.95;16.42;;;;;;;;;;4994635;28;20076;-73
2023/01/23 04:09:26;;;;;;;35.95;17.25;;;;;;;;;;5011684;28;20480;-75
2023/01/23 04:11:53;;;;;;;35.35;17.10;;;;;;;;;;5014220;28;20053;-75
2023/01/23 04:14:20;;;;;;;32.53;15.77;;;;;;;;;;5014514;28;20057;-74
2023/01/23 04:16:47;;;;;;;37.67;17.10;;;;;;;;;;5003781;28;20042;-74
2023/01/23 04:19:14;;;;;;;33.72;15.25;;;;;;;;;;5002949;28;20069;-75
2023/01/23 04:21:40;;;;;;;35.30;16.52;;;;;;;;;;5026527;28;20209;-76
2023/01/23 04:24:08;;;;;;;34.17;16.20;;;;;;;;;;5027684;28;20046;-74
2023/01/23 04:26:35;;;;;;;33.97;15.60;;;;;;;;;;5012987;28;20478;-76
2023/01/23 04:29:02;;;;;;;35.33;14.93;;;;;;;;;;5007687;28;20045;-74
2023/01/23 04:31:28;;;;;;;34.50;15.13;;;;;;;;;;5005346;28;20129;-76
2023/01/23 04:33:55;;;;;;;32.03;14.93;;;;;;;;;;5013169;28;20523;-76
2023/01/23 04:36:22;;;;;;;37.17;16.30;;;;;;;;;;5013254;28;20129;-75
2023/01/23 04:38:49;;;;;;;40.05;18.13;;;;;;;;;;5012387;28;20129;-76
2023/01/23 04:41:21;;;;;;;33.75;16.17;;;;;;;;;;5000933;28;20089;-76
2023/01/23 04:43:47;;;;;;;33.92;16.15;;;;;;;;;;4993375;28;20545;-76
2023/01/23 04:46:14;;;;;;;33.80;15.65;;;;;;;;;;4997123;28;20121;-76
2023/01/23 04:48:41;;;;;;;35.42;16.25;;;;;;;;;;5012982;28;20048;-75
2023/01/23 04:51:08;;;;;;;36.25;17.33;;;;;;;;;;4997771;28;20481;-76
2023/01/23 04:53:35;;;;;;;35.42;17.13;;;;;;;;;;5013070;28;20133;-74
2023/01/23 04:56:02;;;;;;;31.45;15.80;;;;;;;;;;5012459;28;20052;-75
2023/01/23 04:58:31;;;;;;;33.53;16.27;;;;;;;;;;4996669;28;20070;-74
2023/01/23 05:01:02;;;;;;;32.28;16.25;;;;;;;;;;5003615;28;20125;-74
2023/01/23 05:03:28;;;;;;;35.88;16.45;;;;;;;;;;4974912;28;20069;-75
2023/01/23 05:05:55;;;;;;;32.05;16.08;;;;;;;;;;4976230;28;20079;-73
2023/01/23 05:08:22;;;;;;;31.02;15.63;;;;;;;;;;4976641;28;20051;-75
2023/01/23 05:10:48;;;;;;;34.72;15.80;;;;;;;;;;5005850;28;20073;-76
2023/01/23 05:13:15;;;;;;;36.97;17.55;;;;;;;;;;5012123;28;20477;-74
2023/01/23 05:15:43;;;;;;;33.28;15.85;;;;;;;;;;5012453;28;20128;-75
2023/01/23 05:18:10;;;;;;;33.08;16.25;;;;;;;;;;5012797;28;20088;-75
2023/01/23 05:20:37;;;;;;;34.58;15.15;;;;;;;;;;4994945;28;20082;-76
2023/01/23 05:23:03;;;;;;;34.42;15.63;;;;;;;;;;4993735;28;20133;-74
2023/01/23 05:25:30;;;;;;;35.67;15.65;;;;;;;;;;5003991;28;20074;-75
2023/01/23 05:27:57;;;;;;;32.47;14.98;;;;;;;;;;4998072;28;20050;-75
2023/01/23 05:30:23;;;;;;;35.63;16.42;;;;;;;;;;5011198;28;20046;-75
2023/01/23 05:32:51;;;;;;;32.42;17.35;;;;;;;;;;4995447;28;20082;-75
2023/01/23 05:35:18;;;;;;;37.15;17.67;;;;;;;;;;4993336;28;20508;-75
2023/01/23 05:37:48;;;;;;;35.40;16.27;;;;;;;;;;5002056;28;20509;-76
2023/01/23 05:40:15;;;;;;;31.33;15.80;;;;;;;;;;4973882;28;20043;-75
2023/01/23 05:42:42;;;;;;;37.95;17.20;;;;;;;;;;4991135;28;20052;-75
2023/01/23 05:45:09;;;;;;;35.83;16.75;;;;;;;;;;5012560;28;20053;-74
2023/01/23 05:47:37;;;;;;;35.97;16.25;;;;;;;;;;5004813;28;20082;-74
2023/01/23 05:50:06;;;;;;;34.35;16.17;;;;;;;;;;4992758;28;20105;-75
2023/01/23 05:52:33;;;;;;;33.33;17.30;;;;;;;;;;4992213;28;20049;-75
2023/01/23 05:55:00;;;;;;;37.65;17.38;;;;;;;;;;4992406;28;20049;-76
2023/01/23 05:57:26;;;;;;;34.28;17.40;;;;;;;;;;4996689;28;20101;-78
2023/01/23 05:59:53;;;;;;;34.70;17.50;;;;;;;;;;5010583;28;20046;-79
2023/01/23 06:02:20;;;;;;;40.25;18.58;;;;;;;;;;5011744;28;20077;-75
2023/01/23 06:04:47;;;;;;;40.58;17.50;;;;;;;;;;5013688;28;20050;-77
2023/01/23 06:07:17;;;;;;;38.92;16.67;;;;;;;;;;5000073;28;20054;-75
2023/01/23 06:09:44;;;;;;;38.45;17.52;;;;;;;;;;5020775;28;20050;-78
2023/01/23 06:12:11;;;;;;;34.33;16.38;;;;;;;;;;5017297;28;20080;-77
2023/01/23 06:14:38;;;;;;;37.17;16.58;;;;;;;;;;4994628;28;20089;-77
2023/01/23 06:17:05;;;;;;;34.20;16.05;;;;;;;;;;4993359;28;20129;-75
2023/01/23 06:19:32;;;;;;;35.75;15.85;;;;;;;;;;4999154;28;20081;-74
2023/01/23 06:21:59;;;;;;;40.22;18.15;;;;;;;;;;4995683;28;20046;-76
2023/01/23 06:24:27;;;;;;;35.75;16.45;;;;;;;;;;5013401;28;20046;-75
2023/01/23 06:26:54;;;;;;;36.50;16.90;;;;;;;;;;5015065;28;20100;-75
2023/01/23 06:29:21;;;;;;;37.20;16.50;;;;;;;;;;4999021;28;20510;-76
2023/01/23 06:31:49;;;;;;;40.72;18.13;;;;;;;;;;4995557;28;20481;-75
2023/01/23 06:34:16;;;;;;;42.30;18.83;;;;;;;;;;4996119;28;20042;-76
2023/01/23 06:36:42;;;;;;;42.72;19.17;;;;;;;;;;4995637;28;20569;-75
2023/01/23 06:39:14;;;;;;;41.83;18.50;;;;;;;;;;4995542;28;20659;-74
2023/01/23 06:41:42;;;;;;;44.45;18.65;;;;;;;;;;4995470;28;20050;-76
2023/01/23 06:44:09;;;;;;;42.00;17.25;;;;;;;;;;5008755;28;20465;-75
2023/01/23 06:46:35;;;;;;;51.65;20.50;;;;;;;;;;5015206;28;20552;-75
2023/01/23 06:49:03;;;;;;;46.40;19.92;;;;;;;;;;5003934;28;20053;-76
2023/01/23 06:51:30;;;;;;;49.83;21.02;;;;;;;;;;4995626;28;20078;-76
2023/01/23 06:53:57;;;;;;;46.72;20.17;;;;;;;;;;5007654;28;20132;-76
2023/01/23 06:56:23;;;;;;;47.90;19.35;;;;;;;;;;4995899;28;20093;-75
2023/01/23 06:58:52;;;;;;;47.10;20.25;;;;;;;;;;4995353;28;20129;-76
2023/01/23 07:01:19;;;;;;;48.35;20.13;;;;;;;;;;5004662;28;20124;-76
2023/01/23 07:03:45;;;;;;;50.67;19.73;;;;;;;;;;5013826;28;20120;-76
2023/01/23 07:06:14;;;;;;;48.60;21.23;;;;;;;;;;5014912;28;20453;-75
2023/01/23 07:08:41;;;;;;;55.20;22.15;;;;;;;;;;5014695;28;20111;-77
2023/01/23 07:11:08;;;;;;;50.13;20.98;;;;;;;;;;5009795;28;20085;-75
2023/01/23 07:13:36;;;;;;;57.90;20.88;;;;;;;;;;5013918;28;20050;-75
2023/01/23 07:16:04;;;;;;;58.92;22.88;;;;;;;;;;5014936;28;20077;-75
2023/01/23 07:18:32;;;;;;;57.97;22.25;;;;;;;;;;5007102;28;20088;-76
2023/01/23 07:20:59;;;;;;;59.33;22.13;;;;;;;;;;5000666;28;20103;-76
2023/01/23 07:23:26;;;;;;;54.50;22.95;;;;;;;;;;5013317;28;20042;-76
2023/01/23 07:25:59;;;;;;;58.83;24.05;;;;;;;;;;5007292;28;20092;-76
2023/01/23 07:28:25;;;;;;;54.22;21.58;;;;;;;;;;5009002;28;20042;-75
2023/01/23 07:30:52;;;;;;;56.25;21.83;;;;;;;;;;4997166;28;20108;-75
2023/01/23 07:33:20;;;;;;;60.22;22.48;;;;;;;;;;4994858;28;20116;-76
2023/01/23 07:35:47;;;;;;;61.45;23.77;;;;;;;;;;5013952;28;20048;-76
2023/01/23 07:38:13;;;;;;;53.90;21.70;;;;;;;;;;5013317;28;20092;-76
2023/01/23 07:40:41;;;;;;;60.90;23.35;;;;;;;;;;5014549;28;20049;-76
2023/01/23 07:43:08;;;;;;;60.50;23.90;;;;;;;;;;5009422;28;20471;-77
2023/01/23 07:45:36;;;;;;;62.55;22.42;;;;;;;;;;5014511;28;20084;-76
2023/01/23 07:48:03;;;;;;;54.50;20.58;;;;;;;;;;4997991;28;20514;-76
2023/01/23 07:50:32;;;;;;;55.55;22.70;;;;;;;;;;4995917;28;20051;-76
2023/01/23 07:53:00;;;;;;;52.13;21.15;;;;;;;;;;4994548;28;20093;-76
2023/01/23 07:55:26;;;;;;;53.13;21.30;;;;;;;;;;4994365;28;20425;-76
2023/01/23 07:57:53;;;;;;;54.80;20.90;;;;;;;;;;5006723;28;20468;-74
2023/01/23 08:00:21;;;;;;;47.38;19.73;;;;;;;;;;5008967;28;20125;-75
2023/01/23 08:02:48;;;;;;;49.95;20.00;;;;;;;;;;5002684;28;20128;-76
2023/01/23 08:05:15;;;;;;;46.70;18.45;;;;;;;;;;5014445;28;20046;-76
2023/01/23 08:07:43;;;;;;;49.33;20.20;;;;;;;;;;5004752;28;20465;-76
2023/01/23 08:10:11;;;;;;;49.20;18.88;;;;;;;;;;4999423;28;20054;-77
2023/01/23 08:12:38;;;;;;;48.45;20.15;;;;;;;;;;5014552;28;20050;-76
2023/01/23 08:15:06;;;;;;;42.13;18.88;;;;;;;;;;5018983;28;20100;-77
2023/01/23 08:17:33;;;;;;;38.92;16.58;;;;;;;;;;5006335;28;20130;-75
2023/01/23 08:19:59;;;;;;;35.92;16.00;;;;;;;;;;5006139;28;20080;-74
2023/01/23 08:22:26;;;;;;;33.55;15.60;;;;;;;;;;5012536;28;20100;-75
2023/01/23 08:24:54;;;;;;;39.55;16.98;;;;;;;;;;5014418;28;20046;-75
2023/01/23 08:27:21;;;;;;;37.00;15.43;;;;;;;;;;5010596;28;20153;-74
2023/01/23 08:29:47;;;;;;;41.42;16.45;;;;;;;;;;5004412;28;20050;-75
2023/01/23 08:32:14;;;;;;;38.50;16.77;;;;;;;;;;5000754;28;20073;-75
2023/01/23 08:34:41;;;;;;;36.80;15.13;;;;;;;;;;5015702;28;20046;-75
2023/01/23 08:37:08;;;;;;;39.05;15.02;;;;;;;;;;5013745;28;20108;-76
2023/01/23 08:39:34;;;;;;;36.80;14.93;;;;;;;;;;4994548;28;20088;-76
2023/01/23 08:42:02;;;;;;;34.58;13.13;;;;;;;;;;4994396;28;20402;-76
2023/01/23 08:44:30;;;;;;;35.53;14.90;;;;;;;;;;4996288;28;20125;-74
2023/01/23 08:46:56;;;;;;;40.22;17.08;;;;;;;;;;4991924;28;20057;-74
2023/01/23 08:49:23;;;;;;;37.05;16.15;;;;;;;;;;5010531;28;20081;-74
2023/01/23 08:51:50;;;;;;;39.53;16.55;;;;;;;;;;5011053;28;20122;-75
2023/01/23 08:54:16;;;;;;;35.30;15.50;;;;;;;;;;5002538;28;20134;-77
2023/01/23 08:56:43;;;;;;;34.65;14.10;;;;;;;;;;5012471;28;20042;-76
2023/01/23 08:59:11;;;;;;;36.53;15.98;;;;;;;;;;5013196;28;20077;-75
2023/01/23 09:01:38;;;;;;;38.08;15.18;;;;;;;;;;5011886;28;20137;-74
2023/01/23 09:04:05;;;;;;;38.72;15.18;;;;;;;;;;5021838;22;20073;-77
2023/01/23 09:06:32;;;;;;;34.15;16.52;;;;;;;;;;5021797;28;20041;-78
2023/01/23 09:08:59;;;;;;;35.92;14.25;;;;;;;;;;5035883;28;20123;-77
2023/01/23 09:11:25;;;;;;;32.80;14.35;;;;;;;;;;5032583;28;20054;-78
2023/01/23 09:13:52;;;;;;;34.20;14.43;;;;;;;;;;5032656;28;20125;-78
2023/01/23 09:16:20;;;;;;;41.50;14.02;;;;;;;;;;5010724;28;20073;-76
2023/01/23 09:18:47;;;;;;;40.03;15.60;;;;;;;;;;5014033;28;20050;-76
2023/01/23 09:21:16;;;;;;;36.45;14.50;;;;;;;;;;5013032;28;20058;-77
2023/01/23 09:23:42;;;;;;;34.58;14.50;;;;;;;;;;5012832;28;20050;-77
2023/01/23 09:26:11;;;;;;;35.35;15.82;;;;;;;;;;5019930;28;20077;-79
2023/01/23 09:28:41;;;;;;;33.08;13.93;;;;;;;;;;5035767;28;20050;-79
2023/01/23 09:31:10;;;;;;;37.33;16.05;;;;;;;;;;5035216;28;20045;-77
2023/01/23 09:33:39;;;;;;;37.63;14.45;;;;;;;;;;5018412;28;20054;-80
2023/01/23 09:36:07;;;;;;;37.78;14.60;;;;;;;;;;5032524;28;20506;-82
2023/01/23 09:38:34;;;;;;;33.13;14.93;;;;;;;;;;5035764;28;20088;-84
2023/01/23 09:41:08;;;;;;;39.38;16.90;;;;;;;;;;5038774;28;20091;-81
2023/01/23 09:43:40;;;;;;;37.90;15.65;;;;;;;;;;5032874;22;20519;-58
2023/01/23 09:46:15;;;;;;;37.33;15.98;;;;;;;;;;5021940;28;20096;-61
2023/01/23 09:48:47;;;;;;;36.53;16.40;;;;;;;;;;5020829;28;20058;-59
2023/01/23 09:51:20;;;;;;;34.65;14.70;;;;;;;;;;5012418;28;20073;-58
2023/01/23 09:53:48;;;;;;;33.75;13.35;;;;;;;;;;5015619;28;20061;-60
2023/01/23 09:56:28;;;;;;;37.28;15.88;;;;;;;;;;5016090;28;20522;-60
2023/01/23 09:59:02;;;;;;;30.65;14.13;;;;;;;;;;5009288;28;20481;-61
2023/01/23 10:01:31;;;;;;;32.17;13.70;;;;;;;;;;5016734;28;20049;-59
2023/01/23 10:04:01;;;;;;;35.42;16.23;;;;;;;;;;5016370;28;20537;-60
2023/01/23 10:06:31;;;;;;;35.72;15.35;;;;;;;;;;5016043;28;20058;-61
2023/01/23 10:09:20;;;;;;;37.78;15.48;;;;;;;;;;5015782;28;20132;-57
2023/01/23 10:11:57;;;;;;;32.40;14.85;;;;;;;;;;5014988;28;20065;-61
2023/01/23 10:14:58;;;;;;;34.08;14.82;;;;;;;;;;5013947;28;20054;-60
2023/01/23 10:17:35;;;;;;;34.58;14.63;;;;;;;;;;4998057;28;20050;-69
2023/01/23 10:20:29;;;;;;;38.58;16.38;;;;;;;;;;5008653;28;20111;-59
2023/01/23 10:23:05;;;;;;;38.17;15.95;;;;;;;;;;5015631;28;20064;-60
2023/01/23 10:25:37;;;;;;;31.85;16.05;;;;;;;;;;5015191;28;20065;-60
2023/01/23 10:28:17;;;;;;;42.10;15.48;;;;;;;;;;5015560;28;20073;-60
2023/01/23 10:30:51;;;;;;;31.48;14.60;;;;;;;;;;5015140;28;20053;-65
2023/01/23 10:33:20;;;;;;;35.25;16.13;;;;;;;;;;5015146;28;20057;-61
2023/01/23 10:35:52;;;;;;;36.72;15.80;;;;;;;;;;5014221;28;20487;-59
2023/01/23 10:38:27;;;;;;;35.75;16.13;;;;;;;;;;5020198;28;20058;-61
2023/01/23 10:43:39;;;;;;;32.65;14.95;;;;;;;;;;5014984;28;20061;-60
2023/01/23 10:46:11;;;;;;;36.50;16.83;;;;;;;;;;5015215;28;20054;-60
2023/01/23 10:48:41;;;;;;;32.00;14.25;;;;;;;;;;5014827;28;20116;-59
2023/01/23 10:51:49;;;;;;;39.63;16.67;;;;;;;;;;5014984;28;20046;-60
2023/01/23 10:54:19;;;;;;;37.72;15.23;;;;;;;;;;4915981;29;20405;-61
2023/01/23 10:56:57;;;;;;;36.65;14.95;;;;;;;;;;4915954;29;20071;-60
2023/01/23 10:59:31;;;;;;;35.67;15.68;;;;;;;;;;4975072;28;20125;-61
2023/01/23 11:02:02;;;;;;;38.10;16.33;;;;;;;;;;5011929;28;20073;-60
2023/01/23 11:04:30;;;;;;;38.00;15.50;;;;;;;;;;5033335;28;20053;-60
2023/01/23 11:07:09;;;;;;;38.05;15.75;;;;;;;;;;5027103;28;20141;-60
2023/01/23 11:09:47;;;;;;;35.33;15.02;;;;;;;;;;5015181;28;20054;-59
2023/01/23 11:12:18;;;;;;;34.67;15.57;;;;;;;;;;5014438;28;20054;-60
2023/01/23 11:14:45;;;;;;;34.28;16.15;;;;;;;;;;5014468;28;20092;-60
2023/01/23 11:17:20;;;;;;;32.08;14.73;;;;;;;;;;5014412;28;20050;-58
2023/01/23 11:19:50;;;;;;;34.20;14.88;;;;;;;;;;5015362;28;20069;-59
2023/01/23 11:22:30;;;;;;;35.55;16.20;;;;;;;;;;5027363;28;20053;-60
2023/01/23 11:24:58;;;;;;;32.47;16.10;;;;;;;;;;4995104;28;20062;-60
2023/01/23 11:27:28;;;;;;;35.70;16.80;;;;;;;;;;4995967;28;20117;-58
2023/01/23 11:30:27;;;;;;;34.87;14.70;;;;;;;;;;5014604;28;20165;-61
2023/01/23 11:32:58;;;;;;;35.90;16.38;;;;;;;;;;4994765;28;20676;-59
2023/01/23 11:35:37;;;;;;;30.33;14.63;;;;;;;;;;5017805;28;20046;-59
2023/01/23 11:38:09;;;;;;;33.25;15.80;;;;;;;;;;5015645;28;20088;-57
2023/01/23 11:40:36;;;;;;;34.10;14.65;;;;;;;;;;4996999;28;20050;-62
2023/01/23 11:43:03;;;;;;;31.17;14.13;;;;;;;;;;4994305;28;20491;-61
2023/01/23 11:45:42;;;;;;;33.30;14.65;;;;;;;;;;5021606;28;20053;-62
2023/01/23 11:48:27;;;;;;;33.42;14.57;;;;;;;;;;5032581;28;20041;-62
2023/01/23 11:50:58;;;;;;;29.33;13.73;;;;;;;;;;5006718;28;20041;-61
2023/01/23 11:53:34;;;;;;;35.10;15.70;;;;;;;;;;5026561;28;20052;-61
2023/01/23 11:56:36;;;;;;;31.52;15.52;;;;;;;;;;5012926;28;20050;-62
2023/01/23 11:59:30;;;;;;;32.08;14.63;;;;;;;;;;5002978;28;20570;-62
2023/01/23 12:02:32;;;;;;;29.50;13.55;;;;;;;;;;4977402;28;20132;-62
2023/01/23 12:05:20;;;;;;;31.90;15.45;;;;;;;;;;5011641;28;20046;-64
2023/01/23 12:07:59;;;;;;;32.50;15.55;;;;;;;;;;5006839;28;20054;-62
2023/01/23 12:10:32;;;;;;;32.03;13.95;;;;;;;;;;4993942;28;20058;-62
2023/01/23 12:13:16;;;;;;;34.40;13.30;;;;;;;;;;5004434;28;20050;-61
2023/01/23 12:15:51;;;;;;;34.90;15.23;;;;;;;;;;4993037;28;20046;-62
2023/01/23 12:18:30;;;;;;;31.90;14.15;;;;;;;;;;5007200;28;20057;-61
2023/01/23 12:21:05;;;;;;;33.70;14.95;;;;;;;;;;5020191;28;20049;-61
2023/01/23 12:23:48;;;;;;;35.42;14.90;;;;;;;;;;5022319;28;20042;-60
2023/01/23 12:26:21;;;;;;;29.60;13.95;;;;;;;;;;5013375;28;20046;-61
2023/01/23 12:29:05;;;;;;;34.10;16.65;;;;;;;;;;5001160;28;20053;-62
2023/01/23 12:31:46;;;;;;;30.58;14.48;;;;;;;;;;5021748;28;20049;-61
2023/01/23 12:34:34;;;;;;;31.90;15.05;;;;;;;;;;5026803;28;20061;-61
2023/01/23 12:37:20;;;;;;;31.17;13.82;;;;;;;;;;5011036;28;20053;-60
2023/01/23 12:39:59;;;;;;;32.20;15.25;;;;;;;;;;5013059;28;20108;-59
2023/01/23 12:42:32;;;;;;;34.63;14.90;;;;;;;;;;5012695;28;20438;-61
2023/01/23 12:45:06;;;;;;;36.08;15.85;;;;;;;;;;5012692;28;20057;-62
2023/01/23 12:47:39;;;;;;;34.70;16.27;;;;;;;;;;5012269;28;20564;-61
2023/01/23 12:50:17;;;;;;;34.95;16.10;;;;;;;;;;5012700;28;20487;-61
2023/01/23 12:52:49;;;;;;;37.78;15.80;;;;;;;;;;5012546;28;20506;-61
2023/01/23 12:55:20;;;;;;;40.20;18.40;;;;;;;;;;5012760;28;20126;-61
2023/01/23 12:57:55;;;;;;;33.67;14.05;;;;;;;;;;5012444;28;20054;-61
2023/01/23 13:00:42;;;;;;;33.25;14.77;;;;;;;;;;5012842;28;20054;-61
2023/01/23 13:03:22;;;;;;;33.58;16.38;;;;;;;;;;4998865;28;20054;-62
2023/01/23 13:06:02;;;;;;;39.13;15.95;;;;;;;;;;5004645;28;20049;-60
2023/01/23 13:08:35;;;;;;;34.92;16.70;;;;;;;;;;5012441;28;20129;-61
2023/01/23 13:13:52;;;;;;;31.23;14.80;;;;;;;;;;5012175;28;20060;-62
2023/01/23 13:16:20;;;;;;;30.98;14.90;;;;;;;;;;5012263;28;20053;-61
2023/01/23 13:27:41;;;;;;;34.20;14.98;;;;;;;;;;5012456;28;20149;-60
2023/01/23 13:30:43;;;;;;;37.20;16.27;;;;;;;;;;4993188;28;20050;-60
2023/01/23 13:33:50;;;;;;;30.00;14.77;;;;;;;;;;5004953;28;20448;-60
2023/01/23 13:36:37;;;;;;;33.47;14.68;;;;;;;;;;5012399;28;20046;-62
2023/01/23 13:39:26;;;;;;;31.45;15.52;;;;;;;;;;5010206;28;20120;-62
2023/01/23 13:42:26;;;;;;;32.38;15.25;;;;;;;;;;5011658;28;20435;-61
2023/01/23 13:45:25;;;;;;;32.92;14.35;;;;;;;;;;4990752;28;20046;-61
2023/01/23 13:51:17;;;;;;;32.20;15.27;;;;;;;;;;4975232;28;20100;-62
2023/01/23 13:56:40;;;;;;;34.00;15.98;;;;;;;;;;5012141;28;20113;-62
2023/01/23 13:59:21;;;;;;;32.03;15.40;;;;;;;;;;5012389;28;20491;-60
2023/01/23 14:07:43;;;;;;;34.08;14.38;;;;;;;;;;4992682;28;20153;-61
2023/01/23 14:10:27;;;;;;;25.58;13.20;;;;;;;;;;4992520;28;20050;-61
2023/01/23 14:13:08;;;;;;;31.60;15.45;;;;;;;;;;4992931;28;20065;-62
2023/01/23 14:18:29;;;;;;;36.03;16.42;;;;;;;;;;5012127;28;20049;-63
2023/01/23 14:21:05;;;;;;;32.28;15.05;;;;;;;;;;5011975;28;20042;-61
2023/01/23 14:23:37;;;;;;;31.73;14.32;;;;;;;;;;5011557;28;20066;-62
2023/01/23 14:26:07;;;;;;;32.53;15.25;;;;;;;;;;5012307;28;20243;-62
2023/01/23 14:28:34;;;;;;;31.47;14.50;;;;;;;;;;5011749;28;20263;-61
2023/01/23 14:31:03;;;;;;;28.55;13.55;;;;;;;;;;5011901;28;20050;-61
2023/01/23 14:33:40;;;;;;;30.52;14.60;;;;;;;;;;5011568;28;20057;-62
2023/01/23 14:36:14;;;;;;;30.20;14.85;;;;;;;;;;5011507;28;20450;-60
2023/01/23 14:38:43;;;;;;;30.95;14.57;;;;;;;;;;5011661;28;20053;-61
2023/01/23 14:41:10;;;;;;;30.25;14.40;;;;;;;;;;5015364;28;20077;-61
2023/01/23 14:43:38;;;;;;;32.95;15.25;;;;;;;;;;5014891;28;20495;-61
2023/01/23 14:46:12;;;;;;;31.17;14.57;;;;;;;;;;5015035;28;20430;-62
2023/01/23 14:48:42;;;;;;;31.40;14.65;;;;;;;;;;5015070;28;20066;-61
2023/01/23 14:51:19;;;;;;;30.02;14.25;;;;;;;;;;5014985;28;20053;-61
2023/01/23 14:53:53;;;;;;;31.02;14.23;;;;;;;;;;5014741;28;20422;-62
2023/01/23 14:56:23;;;;;;;30.00;14.38;;;;;;;;;;5014753;28;20414;-61
2023/01/23 14:58:51;;;;;;;33.28;14.02;;;;;;;;;;5014806;28;20143;-61
2023/01/23 15:01:18;;;;;;;28.80;15.00;;;;;;;;;;5014784;28;20050;-61
2023/01/23 15:03:56;;;;;;;31.58;14.88;;;;;;;;;;5026365;22;20502;-53
2023/01/23 15:06:25;;;;;;;29.00;14.40;;;;;;;;;;5014834;28;20054;-55
2023/01/23 15:08:52;;;;;;;38.33;15.27;;;;;;;;;;5014736;28;20507;-53
2023/01/23 15:11:26;;;;;;;34.05;15.65;;;;;;;;;;5014753;28;20387;-52
2023/01/23 15:14:00;;;;;;;29.83;15.48;;;;;;;;;;5014096;28;20062;-55